ADDS METAR Data INFO
IDs: Format: Raw Decoded Include TAF

Data at: 0923 UTC 13 Dec 2017

KCFV 130852Z AUTO 20010KT 10SM CLR 02/M02 A2993 RMK AO2 SLP140 T00221022 56031
KCFV 130752Z AUTO 20009KT 10SM CLR 02/M02 A2996 RMK AO2 SLP150 T00221022
KCFV 130652Z AUTO 19009KT 10SM CLR 02/M02 A2999 RMK AO2 SLP161 T00221022
KCFV 130552Z AUTO 19008KT 10SM CLR 02/M03 A3003 RMK AO2 SLP173 T00221028 10033 20006 400891028 56031
KCFV 130452Z AUTO 19009KT 10SM CLR 02/M03 A3006 RMK AO2 SLP185 T00171028
KCFV 130352Z AUTO 18008KT 10SM CLR 01/M04 A3009 RMK AO2 SLP193 T00061039
KCFV 130252Z AUTO 18006KT 10SM CLR 01/M04 A3012 RMK AO2 SLP207 T00111039 58021
KCFV 130152Z AUTO 18006KT 10SM CLR 02/M04 A3014 RMK AO2 SLP214 T00171039
KCFV 130052Z AUTO 20004KT 10SM CLR 02/M04 A3017 RMK AO2 SLP224 T00171044
KCFV 122352Z AUTO 17004KT 10SM CLR 03/M04 A3019 RMK AO2 SLP229 T00331044 10089 20033 56027
KCFV 122252Z AUTO 24004KT 10SM CLR 07/M04 A3021 RMK AO2 SLP234 T00671039
KCFV 122152Z AUTO 26004KT 10SM CLR 08/M05 A3024 RMK AO2 SLP245 T00781050
KCFV 122052Z AUTO 28005KT 10SM CLR 08/M06 A3027 RMK AO2 SLP254 T00781056 56036
KCFV 121952Z AUTO 33008KT 10SM CLR 07/M07 A3030 RMK AO2 SLP263 T00721067
KCFV 121852Z AUTO VRB04KT 10SM CLR 06/M11 A3034 RMK AO2 SLP277 T00611106
KCFV 121752Z AUTO 32006KT 10SM CLR 05/M11 A3038 RMK AO2 SLP290 T00501111 10056 21028 58007
KCFV 121652Z AUTO 33010KT 10SM CLR 04/M09 A3040 RMK AO2 SLP298 T00391094
KCFV 121552Z AUTO 35010KT 10SM CLR 02/M07 A3040 RMK AO2 SLP298 T00221072
KCFV 121452Z AUTO 34011KT 10SM CLR 01/M06 A3040 RMK AO2 SLP298 T00061056 51015
KCFV 121352Z AUTO 34008KT 10SM CLR M02/M06 A3039 RMK AO2 SLP295 T10221056
KCFV 121252Z AUTO 27004KT 10SM CLR M03/M05 A3037 RMK AO2 SLP288 T10281050
KCFV 121152Z AUTO 33007KT 10SM CLR M01/M05 A3035 RMK AO2 SLP283 T10111050 10061 21011 50006
KCFV 121052Z AUTO 35011KT 10SM CLR 02/M04 A3036 RMK AO2 SLP281 T00171039
KCFV 120952Z AUTO 34014KT 10SM CLR 02/M03 A3035 RMK AO2 SLP278 T00221028
KCFV 120852Z AUTO 36010KT 10SM CLR 03/M02 A3034 RMK AO2 SLP274 T00281022 51013
KCFV 120752Z AUTO 33008KT 10SM CLR 03/M03 A3033 RMK AO2 SLP271 T00281028
KCFV 120652Z AUTO 35012KT 10SM CLR 05/M02 A3032 RMK AO2 SLP265 T00501017
KCFV 120552Z AUTO 34014KT 10SM CLR 06/M01 A3030 RMK AO2 PK WND 33026/0455 SLP261 T00611011 10133 20061 402111017 51032
KCFV 120452Z AUTO 35012KT 10SM CLR 07/M01 A3027 RMK AO2 PK WND 35026/0353 SLP251 T00721006
KCFV 120352Z AUTO 34017KT 10SM CLR 08/M01 A3024 RMK AO2 PK WND 32027/0303 SLP242 T00831011
KCFV 120252Z AUTO 34015G25KT 10SM CLR 09/M02 A3020 RMK AO2 SLP229 T00941022 51025
KCFV 120152Z AUTO 34017G23KT 10SM CLR 11/M03 A3018 RMK AO2 SLP223 T01111028
KCFV 120052Z AUTO 34015G24KT 10SM CLR 12/M03 A3015 RMK AO2 PK WND 34027/0009 SLP213 T01171028
KCFV 112352Z AUTO 35018G27KT 10SM CLR 13/M04 A3013 RMK AO2 PK WND 32027/2322 SLP204 T01331044 10211 20133 53029
KCFV 112252Z AUTO 33020G27KT 10SM CLR 15/M07 A3008 RMK AO2 PK WND 31034/2217 SLP190 T01501067
KCFV 112152Z AUTO 33024G33KT 10SM CLR 17/M08 A3006 RMK AO2 PK WND 33033/2143 SLP181 T01721083